Time;durP1;ratioP1;P1;durP2;ratioP2;P2;SDS_P1;SDS_P2;PMS_P1;PMS_P2;Temp;Humidity;BMP_temperature;BMP_pressure;BME280_temperature;BME280_humidity;BME280_pressure;Samples;Min_cycle;Max_cycle;Signal;HPM_P1;HPM_P2
2023/04/06 00:01:25;;;;;;;;;;;;;;;;;;5094875;28;19969;-30
2023/04/06 00:03:51;;;;;;;;;;;;;;;;;;5094579;28;20339;-31
2023/04/06 00:06:17;;;;;;;;;;;;;;;;;;5094790;28;20361;-29
2023/04/06 00:08:44;;;;;;;;;;;;;;;;;;5094366;28;19958;-27
2023/04/06 00:11:10;;;;;;;;;;;;;;;;;;5094403;28;19908;-26
2023/04/06 00:13:36;;;;;;;;;;;;;;;;;;5094396;28;19919;-28
2023/04/06 00:16:02;;;;;;;;;;;;;;;;;;5094428;28;19915;-24
2023/04/06 00:18:28;;;;;;;;;;;;;;;;;;5096230;28;19908;-28
2023/04/06 00:20:54;;;;;;;;;;;;;;;;;;5098491;28;20397;-29
2023/04/06 00:23:20;;;;;;;;;;;;;;;;;;5097224;28;20002;-28
2023/04/06 00:25:46;;;;;;;;;;;;;;;;;;5098146;28;19934;-30
2023/04/06 00:28:12;;;;;;;;;;;;;;;;;;5098172;28;19919;-29
2023/04/06 00:30:38;;;;;;;;;;;;;;;;;;5098124;28;19908;-29
2023/04/06 00:33:03;;;;;;;;;;;;;;;;;;5098265;28;19958;-26
2023/04/06 00:35:30;;;;;;;;;;;;;;;;;;5097998;28;19919;-25
2023/04/06 00:37:56;;;;;;;;;;;;;;;;;;5098142;28;19916;-26
2023/04/06 00:40:22;;;;;;;;;;;;;;;;;;5097831;28;19919;-25
2023/04/06 00:42:48;;;;;;;;;;;;;;;;;;5098105;28;20003;-28
2023/04/06 00:45:14;;;;;;;;;;;;;;;;;;5097835;28;19959;-28
2023/04/06 00:47:40;;;;;;;;;;;;;;;;;;5097855;28;19908;-24
2023/04/06 00:50:06;;;;;;;;;;;;;;;;;;5097707;28;19919;-26
2023/04/06 00:52:32;;;;;;;;;;;;;;;;;;5097599;28;20010;-27
2023/04/06 00:54:58;;;;;;;;;;;;;;;;;;5097661;28;19908;-24
2023/04/06 00:57:24;;;;;;;;;;;;;;;;;;5097482;28;19931;-27
2023/04/06 00:59:50;;;;;;;;;;;;;;;;;;5097659;28;19912;-29
2023/04/06 01:02:16;;;;;;;;;;;;;;;;;;5097485;28;20322;-28
2023/04/06 01:04:42;;;;;;;;;;;;;;;;;;5097687;28;19915;-27
2023/04/06 01:07:08;;;;;;;;;;;;;;;;;;5096315;28;19925;-33
2023/04/06 01:09:34;;;;;;;;;;;;;;;;;;5097653;28;19912;-25
2023/04/06 01:12:00;;;;;;;;;;;;;;;;;;5097266;28;19944;-29
2023/04/06 01:14:26;;;;;;;;;;;;;;;;;;5097215;28;19908;-26
2023/04/06 01:16:52;;;;;;;;;;;;;;;;;;5097172;28;19966;-28
2023/04/06 01:19:18;;;;;;;;;;;;;;;;;;5097046;28;20259;-29
2023/04/06 01:21:44;;;;;;;;;;;;;;;;;;5097339;28;19950;-25
2023/04/06 01:24:10;;;;;;;;;;;;;;;;;;5097046;28;19916;-24
2023/04/06 01:26:36;;;;;;;;;;;;;;;;;;5095975;28;19919;-28
2023/04/06 01:29:02;;;;;;;;;;;;;;;;;;5096388;28;20005;-25
2023/04/06 01:31:28;;;;;;;;;;;;;;;;;;5096895;28;19908;-30
2023/04/06 01:33:54;;;;;;;;;;;;;;;;;;5097088;28;19908;-28
2023/04/06 01:36:20;;;;;;;;;;;;;;;;;;5096800;28;19966;-28
2023/04/06 01:38:46;;;;;;;;;;;;;;;;;;5096581;28;19912;-26
2023/04/06 01:41:12;;;;;;;;;;;;;;;;;;5096744;28;19908;-27
2023/04/06 01:43:38;;;;;;;;;;;;;;;;;;5096993;28;20334;-28
2023/04/06 01:46:04;;;;;;;;;;;;;;;;;;5096625;28;19943;-25
2023/04/06 01:48:30;;;;;;;;;;;;;;;;;;5096567;28;19919;-28
2023/04/06 01:50:56;;;;;;;;;;;;;;;;;;5096745;28;19919;-28
2023/04/06 01:53:22;;;;;;;;;;;;;;;;;;5096703;28;20246;-25
2023/04/06 01:55:48;;;;;;;;;;;;;;;;;;5096392;28;20351;-22
2023/04/06 01:58:14;;;;;;;;;;;;;;;;;;5096333;28;20331;-26
2023/04/06 02:00:40;;;;;;;;;;;;;;;;;;5095299;28;19955;-29
2023/04/06 02:03:06;;;;;;;;;;;;;;;;;;5095283;28;19908;-34
2023/04/06 02:05:37;;;;;;;;;;;;;;;;;;5096234;28;19916;-29
2023/04/06 02:08:03;;;;;;;;;;;;;;;;;;5096065;28;19976;-27
2023/04/06 02:10:29;;;;;;;;;;;;;;;;;;5096179;28;20000;-28
2023/04/06 02:12:55;;;;;;;;;;;;;;;;;;5096030;28;19908;-31
2023/04/06 02:15:21;;;;;;;;;;;;;;;;;;5096056;28;20335;-32
2023/04/06 02:17:47;;;;;;;;;;;;;;;;;;5095953;28;19915;-27
2023/04/06 02:20:13;;;;;;;;;;;;;;;;;;5095772;28;19927;-29
2023/04/06 02:22:39;;;;;;;;;;;;;;;;;;5096170;28;20362;-26
2023/04/06 02:25:05;;;;;;;;;;;;;;;;;;5095905;28;19912;-30
2023/04/06 02:27:31;;;;;;;;;;;;;;;;;;5095793;28;19919;-25
2023/04/06 02:29:56;;;;;;;;;;;;;;;;;;5095759;28;19937;-28
2023/04/06 02:32:22;;;;;;;;;;;;;;;;;;5095997;28;19915;-29
2023/04/06 02:34:48;;;;;;;;;;;;;;;;;;5095695;28;19908;-27
2023/04/06 02:37:14;;;;;;;;;;;;;;;;;;5095620;28;19969;-30
2023/04/06 02:39:40;;;;;;;;;;;;;;;;;;5095619;28;19912;-27
2023/04/06 02:42:06;;;;;;;;;;;;;;;;;;5095217;28;19914;-28
2023/04/06 02:44:32;;;;;;;;;;;;;;;;;;5095775;28;20224;-32
2023/04/06 02:46:58;;;;;;;;;;;;;;;;;;5094369;28;19915;-31
2023/04/06 02:49:24;;;;;;;;;;;;;;;;;;5095436;28;19999;-29
2023/04/06 02:51:50;;;;;;;;;;;;;;;;;;5095296;28;19908;-33
2023/04/06 02:54:16;;;;;;;;;;;;;;;;;;5095342;28;19919;-26
2023/04/06 02:56:42;;;;;;;;;;;;;;;;;;5095610;28;19908;-28
2023/04/06 02:59:08;;;;;;;;;;;;;;;;;;5095445;28;19930;-30
2023/04/06 03:01:34;;;;;;;;;;;;;;;;;;5095242;28;20003;-27
2023/04/06 03:04:00;;;;;;;;;;;;;;;;;;5095226;28;19956;-28
2023/04/06 03:06:26;;;;;;;;;;;;;;;;;;5095411;28;19919;-26
2023/04/06 03:08:52;;;;;;;;;;;;;;;;;;5095073;28;20335;-27
2023/04/06 03:11:18;;;;;;;;;;;;;;;;;;5095397;28;19923;-25
2023/04/06 03:13:44;;;;;;;;;;;;;;;;;;5095337;28;19908;-25
2023/04/06 03:16:10;;;;;;;;;;;;;;;;;;5095315;28;19908;-33
2023/04/06 03:18:36;;;;;;;;;;;;;;;;;;5094973;28;19915;-27
2023/04/06 03:21:02;;;;;;;;;;;;;;;;;;5095161;28;19966;-31
2023/04/06 03:23:28;;;;;;;;;;;;;;;;;;5095158;28;19912;-29
2023/04/06 03:25:54;;;;;;;;;;;;;;;;;;5094880;28;19909;-31
2023/04/06 03:28:20;;;;;;;;;;;;;;;;;;5094741;28;19998;-31
2023/04/06 03:30:46;;;;;;;;;;;;;;;;;;5094806;28;19909;-28
2023/04/06 03:33:12;;;;;;;;;;;;;;;;;;5094817;28;19920;-29
2023/04/06 03:35:38;;;;;;;;;;;;;;;;;;5094772;28;20004;-30
2023/04/06 03:38:04;;;;;;;;;;;;;;;;;;5094541;28;19908;-27
2023/04/06 03:40:29;;;;;;;;;;;;;;;;;;5094602;28;20259;-28
2023/04/06 03:42:55;;;;;;;;;;;;;;;;;;5094698;28;19912;-26
2023/04/06 03:45:21;;;;;;;;;;;;;;;;;;5094609;28;20343;-28
2023/04/06 03:47:47;;;;;;;;;;;;;;;;;;5094547;28;20412;-28
2023/04/06 03:50:13;;;;;;;;;;;;;;;;;;5094730;28;20319;-25
2023/04/06 03:52:39;;;;;;;;;;;;;;;;;;5096936;28;19944;-26
2023/04/06 03:55:05;;;;;;;;;;;;;;;;;;5098595;28;19908;-26
2023/04/06 03:57:31;;;;;;;;;;;;;;;;;;5098482;28;19908;-28
2023/04/06 03:59:57;;;;;;;;;;;;;;;;;;5098363;28;19923;-28
2023/04/06 04:02:23;;;;;;;;;;;;;;;;;;5490269;22;19929;-23
2023/04/06 04:04:49;;;;;;;;;;;;;;;;;;5057879;28;19999;-22
2023/04/06 04:07:15;;;;;;;;;;;;;;;;;;5058162;28;19912;-23
2023/04/06 04:09:41;;;;;;;;;;;;;;;;;;5058010;28;19983;-22
2023/04/06 04:12:07;;;;;;;;;;;;;;;;;;5057646;28;19917;-21
2023/04/06 04:14:33;;;;;;;;;;;;;;;;;;5057799;28;19912;-23
2023/04/06 04:16:59;;;;;;;;;;;;;;;;;;5057850;28;19909;-24
2023/04/06 04:19:25;;;;;;;;;;;;;;;;;;5057351;28;19913;-21
2023/04/06 04:21:51;;;;;;;;;;;;;;;;;;5057348;28;19916;-22
2023/04/06 04:24:17;;;;;;;;;;;;;;;;;;5057396;28;19912;-21
2023/04/06 04:26:44;;;;;;;;;;;;;;;;;;5057241;28;20256;-21
2023/04/06 04:29:10;;;;;;;;;;;;;;;;;;5057349;28;20363;-20
2023/04/06 04:31:36;;;;;;;;;;;;;;;;;;5057487;28;19939;-21
2023/04/06 04:34:02;;;;;;;;;;;;;;;;;;5057195;28;19909;-22
2023/04/06 04:36:27;;;;;;;;;;;;;;;;;;5057063;28;19909;-22
2023/04/06 04:38:54;;;;;;;;;;;;;;;;;;5057043;28;20003;-22
2023/04/06 04:41:20;;;;;;;;;;;;;;;;;;5056993;28;19909;-22
2023/04/06 04:43:46;;;;;;;;;;;;;;;;;;5039169;28;19963;-22
2023/04/06 04:46:12;;;;;;;;;;;;;;;;;;5056665;28;19920;-22
2023/04/06 04:48:38;;;;;;;;;;;;;;;;;;5057089;28;19921;-21
2023/04/06 04:51:04;;;;;;;;;;;;;;;;;;5057199;28;19919;-22
2023/04/06 04:53:30;;;;;;;;;;;;;;;;;;5057243;28;19909;-24
2023/04/06 04:55:56;;;;;;;;;;;;;;;;;;5056931;28;19909;-22
2023/04/06 04:58:22;;;;;;;;;;;;;;;;;;5057092;28;20227;-22
2023/04/06 05:00:48;;;;;;;;;;;;;;;;;;5056940;28;19935;-21
2023/04/06 05:03:14;;;;;;;;;;;;;;;;;;5055698;28;20302;-22
2023/04/06 05:05:40;;;;;;;;;;;;;;;;;;5056735;28;20279;-22
2023/04/06 05:08:06;;;;;;;;;;;;;;;;;;5056865;28;20359;-22
2023/04/06 05:10:32;;;;;;;;;;;;;;;;;;5056757;28;19908;-22
2023/04/06 05:12:57;;;;;;;;;;;;;;;;;;5038883;28;20003;-22
2023/04/06 05:15:24;;;;;;;;;;;;;;;;;;5056711;28;20399;-22
2023/04/06 05:17:50;;;;;;;;;;;;;;;;;;5056461;28;20038;-23
2023/04/06 05:20:16;;;;;;;;;;;;;;;;;;5056456;28;19938;-22
2023/04/06 05:22:42;;;;;;;;;;;;;;;;;;5038841;28;19909;-23
2023/04/06 05:25:08;;;;;;;;;;;;;;;;;;5056428;28;20055;-22
2023/04/06 05:27:33;;;;;;;;;;;;;;;;;;5056353;28;20251;-24
2023/04/06 05:30:00;;;;;;;;;;;;;;;;;;5038646;28;19909;-22
2023/04/06 05:32:26;;;;;;;;;;;;;;;;;;5038435;28;20367;-22
2023/04/06 05:34:52;;;;;;;;;;;;;;;;;;5056254;28;20331;-22
2023/04/06 05:37:18;;;;;;;;;;;;;;;;;;5056093;28;19915;-22
2023/04/06 05:39:44;;;;;;;;;;;;;;;;;;5055998;28;20010;-23
2023/04/06 05:42:11;;;;;;;;;;;;;;;;;;5055872;28;20223;-24
2023/04/06 05:44:36;;;;;;;;;;;;;;;;;;5056144;28;20003;-23
2023/04/06 05:47:02;;;;;;;;;;;;;;;;;;5055875;28;19963;-22
2023/04/06 05:49:28;;;;;;;;;;;;;;;;;;5055585;28;19909;-22
2023/04/06 05:51:54;;;;;;;;;;;;;;;;;;5055744;28;20010;-21
2023/04/06 05:54:20;;;;;;;;;;;;;;;;;;5055884;28;20016;-23
2023/04/06 05:56:46;;;;;;;;;;;;;;;;;;5055781;28;19913;-24
2023/04/06 05:59:12;;;;;;;;;;;;;;;;;;5055914;28;19924;-23
2023/04/06 06:01:38;;;;;;;;;;;;;;;;;;5055445;28;19916;-24
2023/04/06 06:04:04;;;;;;;;;;;;;;;;;;5055251;28;19920;-22
2023/04/06 06:06:30;;;;;;;;;;;;;;;;;;5055661;28;19919;-22
2023/04/06 06:09:00;;;;;;;;;;;;;;;;;;5055772;28;19916;-23
2023/04/06 06:11:26;;;;;;;;;;;;;;;;;;5055461;28;20003;-23
2023/04/06 06:13:52;;;;;;;;;;;;;;;;;;5054535;28;19951;-22
2023/04/06 06:16:18;;;;;;;;;;;;;;;;;;5054723;28;19935;-21
2023/04/06 06:18:44;;;;;;;;;;;;;;;;;;5054116;28;20406;-23
2023/04/06 06:21:12;;;;;;;;;;;;;;;;;;5054072;28;19916;-25
2023/04/06 06:23:38;;;;;;;;;;;;;;;;;;5054110;28;19919;-21
2023/04/06 06:26:04;;;;;;;;;;;;;;;;;;5054499;28;19909;-22
2023/04/06 06:28:30;;;;;;;;;;;;;;;;;;5054102;28;19995;-23
2023/04/06 06:30:56;;;;;;;;;;;;;;;;;;5036242;28;19909;-21
2023/04/06 06:33:22;;;;;;;;;;;;;;;;;;5053726;28;19909;-22
2023/04/06 06:35:48;;;;;;;;;;;;;;;;;;5054082;28;19909;-21
2023/04/06 06:38:14;;;;;;;;;;;;;;;;;;5036699;28;19991;-21
2023/04/06 06:40:40;;;;;;;;;;;;;;;;;;5037666;28;19924;-24
2023/04/06 06:43:06;;;;;;;;;;;;;;;;;;5037206;28;19916;-22
2023/04/06 06:45:31;;;;;;;;;;;;;;;;;;5054793;28;19921;-22
2023/04/06 06:47:57;;;;;;;;;;;;;;;;;;5054551;28;19909;-23
2023/04/06 06:50:23;;;;;;;;;;;;;;;;;;5054527;28;19920;-21
2023/04/06 06:52:49;;;;;;;;;;;;;;;;;;5054507;28;19909;-29
2023/04/06 06:55:15;;;;;;;;;;;;;;;;;;5054902;28;19952;-21
2023/04/06 06:57:42;;;;;;;;;;;;;;;;;;5054725;28;19958;-24
2023/04/06 07:00:08;;;;;;;;;;;;;;;;;;5054516;28;19927;-22
2023/04/06 07:02:34;;;;;;;;;;;;;;;;;;5054253;28;20424;-21
2023/04/06 07:05:00;;;;;;;;;;;;;;;;;;5054423;28;20022;-22
2023/04/06 07:07:26;;;;;;;;;;;;;;;;;;5036758;28;19909;-22
2023/04/06 07:09:52;;;;;;;;;;;;;;;;;;5054342;28;19916;-23
2023/04/06 07:12:18;;;;;;;;;;;;;;;;;;5054327;28;20374;-24
2023/04/06 07:14:44;;;;;;;;;;;;;;;;;;5054164;28;20002;-23
2023/04/06 07:17:10;;;;;;;;;;;;;;;;;;5054438;28;19908;-23
2023/04/06 07:19:36;;;;;;;;;;;;;;;;;;5054599;28;20298;-23
2023/04/06 07:22:03;;;;;;;;;;;;;;;;;;5054495;28;19913;-21
2023/04/06 07:24:29;;;;;;;;;;;;;;;;;;5054199;28;19915;-22
2023/04/06 07:26:56;;;;;;;;;;;;;;;;;;5053590;28;20358;-22
2023/04/06 07:29:22;;;;;;;;;;;;;;;;;;5053758;28;19931;-22
2023/04/06 07:31:49;;;;;;;;;;;;;;;;;;5053755;28;20304;-21
2023/04/06 07:34:15;;;;;;;;;;;;;;;;;;5054203;28;19920;-22
2023/04/06 07:36:41;;;;;;;;;;;;;;;;;;5054175;28;19909;-23
2023/04/06 07:39:07;;;;;;;;;;;;;;;;;;5054313;28;19909;-22
2023/04/06 07:41:33;;;;;;;;;;;;;;;;;;5036589;28;19951;-23
2023/04/06 07:43:59;;;;;;;;;;;;;;;;;;5053939;28;19909;-23
2023/04/06 07:46:25;;;;;;;;;;;;;;;;;;5054064;28;19909;-21
2023/04/06 07:48:51;;;;;;;;;;;;;;;;;;5053986;28;19955;-22
2023/04/06 07:51:17;;;;;;;;;;;;;;;;;;5054290;28;19908;-23
2023/04/06 07:53:43;;;;;;;;;;;;;;;;;;5054146;28;19919;-24
2023/04/06 07:56:09;;;;;;;;;;;;;;;;;;5054364;28;20252;-24
2023/04/06 07:58:35;;;;;;;;;;;;;;;;;;5036217;28;20009;-23
2023/04/06 08:01:01;;;;;;;;;;;;;;;;;;5053961;28;19935;-22
2023/04/06 08:03:27;;;;;;;;;;;;;;;;;;5053724;28;19921;-22
2023/04/06 08:05:53;;;;;;;;;;;;;;;;;;5036063;28;19949;-22
2023/04/06 08:08:21;;;;;;;;;;;;;;;;;;5053579;28;19908;-23
2023/04/06 08:10:47;;;;;;;;;;;;;;;;;;5053587;28;20351;-23
2023/04/06 08:13:13;;;;;;;;;;;;;;;;;;5053769;28;19919;-22
2023/04/06 08:15:39;;;;;;;;;;;;;;;;;;5053958;28;19908;-23
2023/04/06 08:18:05;;;;;;;;;;;;;;;;;;5053475;28;20007;-24
2023/04/06 08:20:31;;;;;;;;;;;;;;;;;;5053346;28;19923;-21
2023/04/06 08:22:57;;;;;;;;;;;;;;;;;;5053244;28;20067;-21
2023/04/06 08:25:23;;;;;;;;;;;;;;;;;;5053324;28;19983;-24
2023/04/06 08:27:49;;;;;;;;;;;;;;;;;;5053540;28;19908;-22
2023/04/06 08:30:15;;;;;;;;;;;;;;;;;;5053163;28;19908;-22
2023/04/06 08:32:41;;;;;;;;;;;;;;;;;;5053443;28;20008;-22
2023/04/06 08:35:07;;;;;;;;;;;;;;;;;;5053485;28;20080;-21
2023/04/06 08:37:33;;;;;;;;;;;;;;;;;;5053471;28;19940;-22
2023/04/06 08:39:59;;;;;;;;;;;;;;;;;;5055692;28;19913;-23
2023/04/06 08:42:26;;;;;;;;;;;;;;;;;;5038889;28;19920;-23
2023/04/06 08:44:52;;;;;;;;;;;;;;;;;;5056313;28;19920;-23
2023/04/06 08:47:18;;;;;;;;;;;;;;;;;;5056650;28;19909;-24
2023/04/06 08:49:44;;;;;;;;;;;;;;;;;;5056414;28;20327;-22
2023/04/06 08:52:10;;;;;;;;;;;;;;;;;;5055906;28;20272;-21
2023/04/06 08:54:36;;;;;;;;;;;;;;;;;;5055954;28;19999;-23
2023/04/06 08:57:02;;;;;;;;;;;;;;;;;;5055917;28;19948;-22
2023/04/06 08:59:28;;;;;;;;;;;;;;;;;;5055821;28;19913;-22
2023/04/06 09:01:54;;;;;;;;;;;;;;;;;;5055722;28;20041;-22
2023/04/06 09:04:20;;;;;;;;;;;;;;;;;;5055591;28;19952;-22
2023/04/06 09:06:46;;;;;;;;;;;;;;;;;;5055976;28;20371;-23
2023/04/06 09:09:12;;;;;;;;;;;;;;;;;;5055626;28;20008;-22
2023/04/06 09:11:38;;;;;;;;;;;;;;;;;;5055817;28;19909;-22
2023/04/06 09:14:03;;;;;;;;;;;;;;;;;;5037709;28;20399;-21
2023/04/06 09:16:29;;;;;;;;;;;;;;;;;;5055512;28;19920;-21
2023/04/06 09:18:55;;;;;;;;;;;;;;;;;;5055382;28;20013;-22
2023/04/06 09:21:21;;;;;;;;;;;;;;;;;;5055400;28;20001;-23
2023/04/06 09:23:48;;;;;;;;;;;;;;;;;;5038106;28;19909;-21
2023/04/06 09:26:14;;;;;;;;;;;;;;;;;;5038231;28;19909;-23
2023/04/06 09:28:40;;;;;;;;;;;;;;;;;;5056329;28;20302;-21
2023/04/06 09:31:06;;;;;;;;;;;;;;;;;;5038150;28;19912;-21
2023/04/06 09:33:32;;;;;;;;;;;;;;;;;;5056137;28;20331;-24
2023/04/06 09:35:58;;;;;;;;;;;;;;;;;;5055913;28;20367;-21
2023/04/06 09:38:24;;;;;;;;;;;;;;;;;;5056245;28;19923;-26
2023/04/06 09:40:50;;;;;;;;;;;;;;;;;;5056358;28;20312;-22
2023/04/06 09:43:16;;;;;;;;;;;;;;;;;;5055987;28;20310;-21
2023/04/06 09:45:42;;;;;;;;;;;;;;;;;;5055676;28;19909;-23
2023/04/06 09:48:08;;;;;;;;;;;;;;;;;;5055846;28;20355;-22
2023/04/06 09:50:34;;;;;;;;;;;;;;;;;;5055922;28;19908;-22
2023/04/06 09:53:00;;;;;;;;;;;;;;;;;;5056075;28;20114;-21
2023/04/06 09:55:26;;;;;;;;;;;;;;;;;;5055725;28;20022;-22
2023/04/06 09:57:52;;;;;;;;;;;;;;;;;;5038096;28;19908;-22
2023/04/06 10:00:19;;;;;;;;;;;;;;;;;;5055769;28;19913;-23
2023/04/06 10:02:45;;;;;;;;;;;;;;;;;;5055423;28;19925;-23
2023/04/06 10:05:11;;;;;;;;;;;;;;;;;;5055997;28;19909;-22
2023/04/06 10:07:37;;;;;;;;;;;;;;;;;;5037921;28;20292;-21
2023/04/06 10:10:03;;;;;;;;;;;;;;;;;;5055369;28;19913;-21
2023/04/06 10:12:29;;;;;;;;;;;;;;;;;;5055476;28;20255;-21
2023/04/06 10:14:55;;;;;;;;;;;;;;;;;;5055626;28;19909;-23
2023/04/06 10:17:24;;;;;;;;;;;;;;;;;;5055371;28;20316;-23
2023/04/06 10:19:50;;;;;;;;;;;;;;;;;;5055475;28;20261;-22
2023/04/06 10:22:15;;;;;;;;;;;;;;;;;;5055486;28;19909;-22
2023/04/06 10:24:41;;;;;;;;;;;;;;;;;;5037604;28;19909;-22
2023/04/06 10:27:10;;;;;;;;;;;;;;;;;;5055456;28;19916;-23
2023/04/06 10:29:36;;;;;;;;;;;;;;;;;;5055080;28;20362;-21
2023/04/06 10:32:02;;;;;;;;;;;;;;;;;;5055023;28;19913;-23
2023/04/06 10:34:28;;;;;;;;;;;;;;;;;;5055303;28;19920;-23
2023/04/06 10:36:54;;;;;;;;;;;;;;;;;;5037936;28;20010;-23
2023/04/06 10:39:21;;;;;;;;;;;;;;;;;;5055201;28;20335;-21
2023/04/06 10:41:48;;;;;;;;;;;;;;;;;;5055222;28;19909;-21
2023/04/06 10:44:14;;;;;;;;;;;;;;;;;;5055194;28;20254;-22
2023/04/06 10:46:40;;;;;;;;;;;;;;;;;;5054994;28;19970;-23
2023/04/06 10:49:06;;;;;;;;;;;;;;;;;;5054687;28;20331;-22
2023/04/06 10:51:32;;;;;;;;;;;;;;;;;;5036988;28;19916;-23
2023/04/06 10:53:58;;;;;;;;;;;;;;;;;;5054428;28;19909;-21
2023/04/06 10:56:26;;;;;;;;;;;;;;;;;;5054218;28;19989;-23
2023/04/06 10:58:52;;;;;;;;;;;;;;;;;;5053893;28;19909;-22
2023/04/06 11:01:18;;;;;;;;;;;;;;;;;;5053140;28;20309;-22
2023/04/06 11:03:44;;;;;;;;;;;;;;;;;;5053574;28;19952;-21
2023/04/06 11:06:10;;;;;;;;;;;;;;;;;;5036059;28;19994;-22
2023/04/06 11:08:37;;;;;;;;;;;;;;;;;;5053691;28;19912;-22
2023/04/06 11:11:03;;;;;;;;;;;;;;;;;;5053622;28;19920;-21
2023/04/06 11:13:29;;;;;;;;;;;;;;;;;;5053531;28;19908;-21
2023/04/06 11:15:55;;;;;;;;;;;;;;;;;;5053697;28;20067;-23
2023/04/06 11:18:21;;;;;;;;;;;;;;;;;;5053453;28;20299;-23
2023/04/06 11:20:47;;;;;;;;;;;;;;;;;;5053997;28;20236;-22
2023/04/06 11:23:15;;;;;;;;;;;;;;;;;;5053378;28;21271;-22
2023/04/06 11:25:41;;;;;;;;;;;;;;;;;;5054120;28;19909;-22
2023/04/06 11:28:07;;;;;;;;;;;;;;;;;;5054428;28;20323;-21
2023/04/06 11:30:33;;;;;;;;;;;;;;;;;;5054218;28;20390;-22
2023/04/06 11:32:58;;;;;;;;;;;;;;;;;;5054491;28;19948;-22
2023/04/06 11:35:24;;;;;;;;;;;;;;;;;;5036540;28;19920;-21
2023/04/06 11:37:50;;;;;;;;;;;;;;;;;;5054190;28;19999;-22
2023/04/06 11:40:16;;;;;;;;;;;;;;;;;;5053984;28;20000;-21
2023/04/06 11:42:44;;;;;;;;;;;;;;;;;;5054470;28;19913;-21
2023/04/06 11:45:10;;;;;;;;;;;;;;;;;;5054142;28;19916;-23
2023/04/06 11:47:37;;;;;;;;;;;;;;;;;;5054244;28;19916;-21
2023/04/06 11:50:03;;;;;;;;;;;;;;;;;;5054367;28;20259;-22
2023/04/06 11:52:29;;;;;;;;;;;;;;;;;;5054186;28;19909;-23
2023/04/06 11:54:57;;;;;;;;;;;;;;;;;;5054822;28;20240;-22
2023/04/06 11:57:25;;;;;;;;;;;;;;;;;;5054070;28;19921;-23
2023/04/06 11:59:51;;;;;;;;;;;;;;;;;;5053805;28;19913;-21
2023/04/06 12:02:17;;;;;;;;;;;;;;;;;;5053613;28;19963;-22
2023/04/06 12:04:43;;;;;;;;;;;;;;;;;;5053815;28;19970;-21
2023/04/06 12:07:09;;;;;;;;;;;;;;;;;;5053549;28;19908;-23
2023/04/06 12:09:36;;;;;;;;;;;;;;;;;;5035823;28;19951;-23
2023/04/06 12:12:02;;;;;;;;;;;;;;;;;;5053666;28;19976;-23
2023/04/06 12:14:30;;;;;;;;;;;;;;;;;;5057227;28;20343;-21
2023/04/06 12:16:56;;;;;;;;;;;;;;;;;;5057764;28;19915;-23
2023/04/06 12:19:25;;;;;;;;;;;;;;;;;;5039872;28;19932;-22
2023/04/06 12:21:51;;;;;;;;;;;;;;;;;;5057678;28;19909;-23
2023/04/06 12:24:17;;;;;;;;;;;;;;;;;;5039706;28;19909;-22
2023/04/06 12:26:43;;;;;;;;;;;;;;;;;;5039836;28;19912;-24
2023/04/06 12:29:09;;;;;;;;;;;;;;;;;;5057189;28;20362;-22
2023/04/06 12:31:35;;;;;;;;;;;;;;;;;;5058384;28;20007;-21
2023/04/06 12:34:02;;;;;;;;;;;;;;;;;;5057148;28;20351;-22
2023/04/06 12:36:28;;;;;;;;;;;;;;;;;;5057031;28;19970;-21
2023/04/06 12:38:55;;;;;;;;;;;;;;;;;;5057188;28;19908;-22
2023/04/06 12:41:21;;;;;;;;;;;;;;;;;;5057261;28;20318;-24
2023/04/06 12:43:47;;;;;;;;;;;;;;;;;;5057327;28;19923;-21
2023/04/06 12:46:13;;;;;;;;;;;;;;;;;;5057191;28;20263;-22
2023/04/06 12:48:39;;;;;;;;;;;;;;;;;;5056896;28;19916;-22
2023/04/06 12:51:05;;;;;;;;;;;;;;;;;;5056784;28;19908;-23
2023/04/06 12:53:31;;;;;;;;;;;;;;;;;;5056601;28;19916;-23
2023/04/06 12:55:57;;;;;;;;;;;;;;;;;;5056584;28;20034;-22
2023/04/06 12:58:23;;;;;;;;;;;;;;;;;;5056569;28;19925;-22
2023/04/06 13:00:49;;;;;;;;;;;;;;;;;;5056707;28;19919;-21
2023/04/06 13:03:15;;;;;;;;;;;;;;;;;;5056444;28;20271;-23
2023/04/06 13:05:41;;;;;;;;;;;;;;;;;;5056832;28;20312;-27
2023/04/06 13:08:07;;;;;;;;;;;;;;;;;;5056690;28;19948;-24
2023/04/06 13:10:32;;;;;;;;;;;;;;;;;;5039210;28;19966;-22
2023/04/06 13:12:59;;;;;;;;;;;;;;;;;;5056349;28;19920;-22
2023/04/06 13:15:25;;;;;;;;;;;;;;;;;;5056277;28;19956;-21
2023/04/06 13:17:51;;;;;;;;;;;;;;;;;;5038729;28;19920;-22
2023/04/06 13:20:17;;;;;;;;;;;;;;;;;;5056266;28;20229;-22
2023/04/06 13:22:43;;;;;;;;;;;;;;;;;;5056244;28;19920;-21
2023/04/06 13:25:09;;;;;;;;;;;;;;;;;;5055776;28;19909;-23
2023/04/06 13:27:35;;;;;;;;;;;;;;;;;;5038615;28;19962;-21
2023/04/06 13:30:02;;;;;;;;;;;;;;;;;;5056381;28;20011;-20
2023/04/06 13:32:28;;;;;;;;;;;;;;;;;;5056396;28;19908;-23
2023/04/06 13:34:54;;;;;;;;;;;;;;;;;;5056608;28;20002;-22
2023/04/06 13:37:20;;;;;;;;;;;;;;;;;;5056424;28;19919;-23
2023/04/06 13:39:46;;;;;;;;;;;;;;;;;;5039344;28;19947;-23
2023/04/06 13:42:12;;;;;;;;;;;;;;;;;;5056340;28;20344;-23
2023/04/06 13:44:38;;;;;;;;;;;;;;;;;;5038680;28;19909;-20
2023/04/06 13:47:03;;;;;;;;;;;;;;;;;;5038565;28;19909;-21
2023/04/06 13:49:30;;;;;;;;;;;;;;;;;;5038434;28;19999;-24
2023/04/06 13:51:56;;;;;;;;;;;;;;;;;;5056076;28;19908;-22
2023/04/06 13:54:22;;;;;;;;;;;;;;;;;;5056073;28;19970;-22
2023/04/06 13:56:48;;;;;;;;;;;;;;;;;;5056068;28;19919;-23
2023/04/06 13:59:14;;;;;;;;;;;;;;;;;;5038120;28;19912;-22
2023/04/06 14:01:40;;;;;;;;;;;;;;;;;;5055808;28;20255;-21
2023/04/06 14:04:06;;;;;;;;;;;;;;;;;;5055373;28;19996;-22
2023/04/06 14:06:32;;;;;;;;;;;;;;;;;;5055443;28;19909;-22
2023/04/06 14:08:58;;;;;;;;;;;;;;;;;;5055377;28;20003;-23
2023/04/06 14:11:24;;;;;;;;;;;;;;;;;;5055383;28;19909;-22
2023/04/06 14:13:50;;;;;;;;;;;;;;;;;;5055240;28;19920;-23
2023/04/06 14:16:19;;;;;;;;;;;;;;;;;;5037862;28;19916;-22
2023/04/06 14:18:45;;;;;;;;;;;;;;;;;;5055395;28;19951;-22
2023/04/06 14:21:11;;;;;;;;;;;;;;;;;;5055287;28;19913;-23
2023/04/06 14:23:37;;;;;;;;;;;;;;;;;;5055722;28;19932;-22
2023/04/06 14:26:03;;;;;;;;;;;;;;;;;;5055171;28;19913;-21
2023/04/06 14:28:30;;;;;;;;;;;;;;;;;;5037508;28;19970;-22
2023/04/06 14:30:56;;;;;;;;;;;;;;;;;;5038101;28;19948;-22
2023/04/06 14:33:22;;;;;;;;;;;;;;;;;;5054986;28;19909;-22
2023/04/06 14:35:48;;;;;;;;;;;;;;;;;;5054548;28;20288;-23
2023/04/06 14:38:14;;;;;;;;;;;;;;;;;;5036811;28;19915;-23
2023/04/06 14:40:40;;;;;;;;;;;;;;;;;;5054662;28;19969;-23
2023/04/06 14:43:06;;;;;;;;;;;;;;;;;;5037260;28;19909;-30
2023/04/06 14:45:32;;;;;;;;;;;;;;;;;;5054833;28;19917;-22
2023/04/06 14:47:58;;;;;;;;;;;;;;;;;;5054664;28;20248;-23
2023/04/06 14:50:24;;;;;;;;;;;;;;;;;;5054852;28;20073;-22
2023/04/06 14:52:50;;;;;;;;;;;;;;;;;;5054348;28;20022;-22
2023/04/06 14:55:16;;;;;;;;;;;;;;;;;;5054466;28;19997;-21
2023/04/06 14:57:42;;;;;;;;;;;;;;;;;;5054285;28;19909;-21
2023/04/06 15:00:09;;;;;;;;;;;;;;;;;;5054385;28;20347;-21
2023/04/06 15:02:35;;;;;;;;;;;;;;;;;;5054377;28;20360;-22
2023/04/06 15:05:01;;;;;;;;;;;;;;;;;;5054108;28;19919;-22
2023/04/06 15:07:27;;;;;;;;;;;;;;;;;;5054071;28;19909;-22
2023/04/06 15:09:53;;;;;;;;;;;;;;;;;;5036468;28;19913;-24
2023/04/06 15:12:19;;;;;;;;;;;;;;;;;;5036375;28;19913;-22
2023/04/06 15:14:45;;;;;;;;;;;;;;;;;;5036193;28;20042;-21
2023/04/06 15:17:10;;;;;;;;;;;;;;;;;;5053343;28;19981;-22
2023/04/06 15:19:36;;;;;;;;;;;;;;;;;;5053120;28;19913;-22
2023/04/06 15:22:02;;;;;;;;;;;;;;;;;;5053426;28;19963;-22
2023/04/06 15:24:28;;;;;;;;;;;;;;;;;;5053439;28;19912;-21
2023/04/06 15:26:55;;;;;;;;;;;;;;;;;;5035544;28;19913;-24
2023/04/06 15:29:21;;;;;;;;;;;;;;;;;;5053401;28;19924;-21
2023/04/06 15:31:47;;;;;;;;;;;;;;;;;;5053539;28;19909;-21
2023/04/06 15:34:13;;;;;;;;;;;;;;;;;;5053578;28;20340;-23
2023/04/06 15:36:39;;;;;;;;;;;;;;;;;;5053482;28;19948;-22
2023/04/06 15:39:08;;;;;;;;;;;;;;;;;;5053712;28;19996;-24
2023/04/06 15:41:34;;;;;;;;;;;;;;;;;;5036433;28;19927;-21
2023/04/06 15:44:00;;;;;;;;;;;;;;;;;;5053842;28;19909;-21
2023/04/06 15:46:29;;;;;;;;;;;;;;;;;;5053949;28;19916;-21
2023/04/06 15:48:55;;;;;;;;;;;;;;;;;;5039312;28;20354;-22
2023/04/06 15:51:21;;;;;;;;;;;;;;;;;;5058411;28;19940;-23
2023/04/06 15:53:47;;;;;;;;;;;;;;;;;;5057954;28;19913;-22
2023/04/06 15:56:13;;;;;;;;;;;;;;;;;;5058245;28;20377;-21
2023/04/06 15:58:39;;;;;;;;;;;;;;;;;;5040768;28;20217;-22
2023/04/06 16:01:05;;;;;;;;;;;;;;;;;;5057602;28;19919;-22
2023/04/06 16:03:31;;;;;;;;;;;;;;;;;;5057543;28;19995;-22
2023/04/06 16:05:57;;;;;;;;;;;;;;;;;;5058258;28;20002;-22
2023/04/06 16:08:23;;;;;;;;;;;;;;;;;;5058163;28;19924;-23
2023/04/06 16:10:49;;;;;;;;;;;;;;;;;;5040139;28;19995;-23
2023/04/06 16:13:15;;;;;;;;;;;;;;;;;;5057567;28;19935;-22
2023/04/06 16:15:41;;;;;;;;;;;;;;;;;;5057727;28;19909;-21
2023/04/06 16:18:07;;;;;;;;;;;;;;;;;;5057776;28;19992;-27
2023/04/06 16:20:33;;;;;;;;;;;;;;;;;;5057644;28;20212;-21
2023/04/06 16:22:59;;;;;;;;;;;;;;;;;;5057742;28;20023;-24
2023/04/06 16:25:25;;;;;;;;;;;;;;;;;;5057784;28;19909;-23
2023/04/06 16:27:51;;;;;;;;;;;;;;;;;;5057461;28;19909;-22
2023/04/06 16:30:17;;;;;;;;;;;;;;;;;;5057411;28;20302;-22
2023/04/06 16:32:45;;;;;;;;;;;;;;;;;;5057205;28;19924;-22
2023/04/06 16:35:11;;;;;;;;;;;;;;;;;;5057199;28;19909;-21
2023/04/06 16:37:37;;;;;;;;;;;;;;;;;;5057365;28;19919;-22